sensor_id;sensor_type;location;lat;lon;timestamp;temperature;humidity
50606;DHT22;36557;53.572;10.170;2023-10-08T00:01:17;10.60;99.90
50606;DHT22;36557;53.572;10.170;2023-10-08T00:03:43;10.60;99.90
50606;DHT22;36557;53.572;10.170;2023-10-08T00:06:16;10.80;99.90
50606;DHT22;36557;53.572;10.170;2023-10-08T00:08:42;10.60;99.90
50606;DHT22;36557;53.572;10.170;2023-10-08T00:11:08;10.60;99.90
50606;DHT22;36557;53.572;10.170;2023-10-08T00:13:36;10.60;99.90
50606;DHT22;36557;53.572;10.170;2023-10-08T00:16:08;10.70;99.90
50606;DHT22;36557;53.572;10.170;2023-10-08T00:18:37;10.60;99.90
50606;DHT22;36557;53.572;10.170;2023-10-08T00:21:03;10.60;99.90
50606;DHT22;36557;53.572;10.170;2023-10-08T00:23:32;10.70;99.90
50606;DHT22;36557;53.572;10.170;2023-10-08T00:26:00;10.70;99.90
50606;DHT22;36557;53.572;10.170;2023-10-08T00:28:31;10.70;99.90
50606;DHT22;36557;53.572;10.170;2023-10-08T00:30:58;10.70;99.90
50606;DHT22;36557;53.572;10.170;2023-10-08T00:33:31;10.60;99.90
50606;DHT22;36557;53.572;10.170;2023-10-08T00:35:56;10.60;99.90
50606;DHT22;36557;53.572;10.170;2023-10-08T00:38:22;10.70;99.90
50606;DHT22;36557;53.572;10.170;2023-10-08T00:40:49;10.60;99.90
50606;DHT22;36557;53.572;10.170;2023-10-08T00:46:01;10.50;99.90
50606;DHT22;36557;53.572;10.170;2023-10-08T00:48:27;10.60;99.90
50606;DHT22;36557;53.572;10.170;2023-10-08T00:50:54;10.60;99.90
50606;DHT22;36557;53.572;10.170;2023-10-08T00:53:35;10.60;99.90
50606;DHT22;36557;53.572;10.170;2023-10-08T00:56:05;10.60;99.90
50606;DHT22;36557;53.572;10.170;2023-10-08T00:58:39;10.60;99.90
50606;DHT22;36557;53.572;10.170;2023-10-08T01:01:06;10.60;99.90
50606;DHT22;36557;53.572;10.170;2023-10-08T01:03:36;10.50;99.90
50606;DHT22;36557;53.572;10.170;2023-10-08T01:06:01;10.50;99.90
50606;DHT22;36557;53.572;10.170;2023-10-08T01:08:28;10.60;99.90
50606;DHT22;36557;53.572;10.170;2023-10-08T01:11:44;10.60;99.90
50606;DHT22;36557;53.572;10.170;2023-10-08T01:14:11;10.60;99.90
50606;DHT22;36557;53.572;10.170;2023-10-08T01:16:37;10.50;99.90
50606;DHT22;36557;53.572;10.170;2023-10-08T01:19:04;10.50;99.90
50606;DHT22;36557;53.572;10.170;2023-10-08T01:21:30;10.50;99.90
50606;DHT22;36557;53.572;10.170;2023-10-08T01:24:05;10.60;99.90
50606;DHT22;36557;53.572;10.170;2023-10-08T01:26:35;10.50;99.90
50606;DHT22;36557;53.572;10.170;2023-10-08T01:29:04;10.50;99.90
50606;DHT22;36557;53.572;10.170;2023-10-08T01:31:32;10.60;99.90
50606;DHT22;36557;53.572;10.170;2023-10-08T01:33:57;10.60;99.90
50606;DHT22;36557;53.572;10.170;2023-10-08T01:36:26;10.40;99.90
50606;DHT22;36557;53.572;10.170;2023-10-08T01:38:53;10.50;99.90
50606;DHT22;36557;53.572;10.170;2023-10-08T01:41:20;10.40;99.90
50606;DHT22;36557;53.572;10.170;2023-10-08T01:43:55;10.40;99.90
50606;DHT22;36557;53.572;10.170;2023-10-08T01:46:21;10.40;99.90
50606;DHT22;36557;53.572;10.170;2023-10-08T01:48:47;10.50;99.90
50606;DHT22;36557;53.572;10.170;2023-10-08T01:51:19;10.40;99.90
50606;DHT22;36557;53.572;10.170;2023-10-08T01:53:54;10.50;99.90
50606;DHT22;36557;53.572;10.170;2023-10-08T01:56:20;10.40;99.90
50606;DHT22;36557;53.572;10.170;2023-10-08T01:58:46;10.40;99.90
50606;DHT22;36557;53.572;10.170;2023-10-08T02:01:12;10.50;99.90
50606;DHT22;36557;53.572;10.170;2023-10-08T02:03:38;10.50;99.90
50606;DHT22;36557;53.572;10.170;2023-10-08T02:06:04;10.50;99.90
50606;DHT22;36557;53.572;10.170;2023-10-08T02:08:33;10.60;99.90
50606;DHT22;36557;53.572;10.170;2023-10-08T02:10:59;10.40;99.90
50606;DHT22;36557;53.572;10.170;2023-10-08T02:13:25;10.40;99.90
50606;DHT22;36557;53.572;10.170;2023-10-08T02:15:51;10.40;99.90
50606;DHT22;36557;53.572;10.170;2023-10-08T02:18:18;10.50;99.90
50606;DHT22;36557;53.572;10.170;2023-10-08T02:20:44;10.40;99.90
50606;DHT22;36557;53.572;10.170;2023-10-08T02:23:09;10.40;99.90
50606;DHT22;36557;53.572;10.170;2023-10-08T02:25:38;10.30;99.90
50606;DHT22;36557;53.572;10.170;2023-10-08T02:28:05;10.20;99.90
50606;DHT22;36557;53.572;10.170;2023-10-08T02:30:34;10.30;99.90
50606;DHT22;36557;53.572;10.170;2023-10-08T02:32:59;10.20;99.90
50606;DHT22;36557;53.572;10.170;2023-10-08T02:35:25;10.20;99.90
50606;DHT22;36557;53.572;10.170;2023-10-08T02:37:52;10.10;99.90
50606;DHT22;36557;53.572;10.170;2023-10-08T02:40:20;10.20;99.90
50606;DHT22;36557;53.572;10.170;2023-10-08T02:42:52;10.20;99.90
50606;DHT22;36557;53.572;10.170;2023-10-08T02:45:29;10.20;99.90
50606;DHT22;36557;53.572;10.170;2023-10-08T02:47:55;10.20;99.90
50606;DHT22;36557;53.572;10.170;2023-10-08T02:50:21;10.20;99.90
50606;DHT22;36557;53.572;10.170;2023-10-08T02:52:50;10.30;99.90
50606;DHT22;36557;53.572;10.170;2023-10-08T02:55:16;10.20;99.90
50606;DHT22;36557;53.572;10.170;2023-10-08T02:57:59;10.30;99.90
50606;DHT22;36557;53.572;10.170;2023-10-08T03:00:25;10.20;99.90
50606;DHT22;36557;53.572;10.170;2023-10-08T03:02:56;10.20;99.90
50606;DHT22;36557;53.572;10.170;2023-10-08T03:05:21;10.20;99.90
50606;DHT22;36557;53.572;10.170;2023-10-08T03:07:47;10.10;99.90
50606;DHT22;36557;53.572;10.170;2023-10-08T03:10:16;10.10;99.90
50606;DHT22;36557;53.572;10.170;2023-10-08T03:12:45;10.20;99.90
50606;DHT22;36557;53.572;10.170;2023-10-08T03:15:12;10.20;99.90
50606;DHT22;36557;53.572;10.170;2023-10-08T03:18:03;10.00;99.90
50606;DHT22;36557;53.572;10.170;2023-10-08T03:20:38;10.10;99.90
50606;DHT22;36557;53.572;10.170;2023-10-08T03:23:07;10.10;99.90
50606;DHT22;36557;53.572;10.170;2023-10-08T03:25:59;10.10;99.90
50606;DHT22;36557;53.572;10.170;2023-10-08T03:28:48;10.10;99.90
50606;DHT22;36557;53.572;10.170;2023-10-08T03:31:22;10.00;99.90
50606;DHT22;36557;53.572;10.170;2023-10-08T03:34:08;10.00;99.90
50606;DHT22;36557;53.572;10.170;2023-10-08T03:36:38;9.90;99.90
50606;DHT22;36557;53.572;10.170;2023-10-08T03:39:15;9.80;99.90
50606;DHT22;36557;53.572;10.170;2023-10-08T03:41:42;9.90;99.90
50606;DHT22;36557;53.572;10.170;2023-10-08T03:44:17;9.90;99.90
50606;DHT22;36557;53.572;10.170;2023-10-08T03:46:45;9.90;99.90
50606;DHT22;36557;53.572;10.170;2023-10-08T03:49:13;9.80;99.90
50606;DHT22;36557;53.572;10.170;2023-10-08T03:51:48;9.80;99.90
50606;DHT22;36557;53.572;10.170;2023-10-08T03:54:20;9.80;99.90
50606;DHT22;36557;53.572;10.170;2023-10-08T03:56:55;9.70;99.90
50606;DHT22;36557;53.572;10.170;2023-10-08T03:59:21;9.70;99.90
50606;DHT22;36557;53.572;10.170;2023-10-08T04:02:00;9.60;99.90
50606;DHT22;36557;53.572;10.170;2023-10-08T04:04:46;9.70;99.90
50606;DHT22;36557;53.572;10.170;2023-10-08T04:07:22;9.70;99.90
50606;DHT22;36557;53.572;10.170;2023-10-08T04:10:01;9.50;99.90
50606;DHT22;36557;53.572;10.170;2023-10-08T04:12:50;9.60;99.90
50606;DHT22;36557;53.572;10.170;2023-10-08T04:15:16;9.50;99.90
50606;DHT22;36557;53.572;10.170;2023-10-08T04:17:42;9.60;99.90
50606;DHT22;36557;53.572;10.170;2023-10-08T04:20:11;9.60;99.90
50606;DHT22;36557;53.572;10.170;2023-10-08T04:22:55;9.50;99.90
50606;DHT22;36557;53.572;10.170;2023-10-08T04:25:21;9.60;99.90
50606;DHT22;36557;53.572;10.170;2023-10-08T04:27:47;9.60;99.90
50606;DHT22;36557;53.572;10.170;2023-10-08T04:30:15;9.50;99.90
50606;DHT22;36557;53.572;10.170;2023-10-08T04:32:41;9.50;99.90
50606;DHT22;36557;53.572;10.170;2023-10-08T04:35:07;9.50;99.90
50606;DHT22;36557;53.572;10.170;2023-10-08T04:37:34;9.40;99.90
50606;DHT22;36557;53.572;10.170;2023-10-08T04:39:59;9.40;99.90
50606;DHT22;36557;53.572;10.170;2023-10-08T04:42:25;9.30;99.90
50606;DHT22;36557;53.572;10.170;2023-10-08T04:44:53;9.40;99.90
50606;DHT22;36557;53.572;10.170;2023-10-08T04:47:19;9.30;99.90
50606;DHT22;36557;53.572;10.170;2023-10-08T04:49:57;9.40;99.90
50606;DHT22;36557;53.572;10.170;2023-10-08T04:52:23;9.30;99.90
50606;DHT22;36557;53.572;10.170;2023-10-08T04:54:50;9.40;99.90
50606;DHT22;36557;53.572;10.170;2023-10-08T04:57:26;9.50;99.90
50606;DHT22;36557;53.572;10.170;2023-10-08T04:59:54;9.30;99.90
50606;DHT22;36557;53.572;10.170;2023-10-08T05:02:22;9.40;99.90
50606;DHT22;36557;53.572;10.170;2023-10-08T05:05:14;9.40;99.90
50606;DHT22;36557;53.572;10.170;2023-10-08T05:07:40;9.40;99.90
50606;DHT22;36557;53.572;10.170;2023-10-08T05:10:12;9.40;99.90
50606;DHT22;36557;53.572;10.170;2023-10-08T05:12:50;9.30;99.90
50606;DHT22;36557;53.572;10.170;2023-10-08T05:15:26;9.30;99.90
50606;DHT22;36557;53.572;10.170;2023-10-08T05:18:21;9.40;99.90
50606;DHT22;36557;53.572;10.170;2023-10-08T05:20:46;9.40;99.90
50606;DHT22;36557;53.572;10.170;2023-10-08T05:23:33;9.30;99.90
50606;DHT22;36557;53.572;10.170;2023-10-08T05:26:18;9.30;99.90
50606;DHT22;36557;53.572;10.170;2023-10-08T05:28:56;9.20;99.90
50606;DHT22;36557;53.572;10.170;2023-10-08T05:31:48;9.30;99.90
50606;DHT22;36557;53.572;10.170;2023-10-08T05:34:18;9.30;99.90
50606;DHT22;36557;53.572;10.170;2023-10-08T05:36:57;9.20;99.90
50606;DHT22;36557;53.572;10.170;2023-10-08T05:39:26;9.30;99.90
50606;DHT22;36557;53.572;10.170;2023-10-08T05:41:55;9.30;99.90
50606;DHT22;36557;53.572;10.170;2023-10-08T05:44:41;9.30;99.90
50606;DHT22;36557;53.572;10.170;2023-10-08T05:47:13;9.30;99.90
50606;DHT22;36557;53.572;10.170;2023-10-08T05:50:02;9.30;99.90
50606;DHT22;36557;53.572;10.170;2023-10-08T05:52:48;9.40;99.90
50606;DHT22;36557;53.572;10.170;2023-10-08T05:55:23;9.40;99.90
50606;DHT22;36557;53.572;10.170;2023-10-08T05:57:52;9.20;99.90
50606;DHT22;36557;53.572;10.170;2023-10-08T06:00:28;9.30;99.90
50606;DHT22;36557;53.572;10.170;2023-10-08T06:03:12;9.20;99.90
50606;DHT22;36557;53.572;10.170;2023-10-08T06:05:58;9.20;99.90
50606;DHT22;36557;53.572;10.170;2023-10-08T06:08:41;9.10;99.90
50606;DHT22;36557;53.572;10.170;2023-10-08T06:11:26;9.10;99.90
50606;DHT22;36557;53.572;10.170;2023-10-08T06:14:10;9.00;99.90
50606;DHT22;36557;53.572;10.170;2023-10-08T06:16:40;9.10;99.90
50606;DHT22;36557;53.572;10.170;2023-10-08T06:19:10;9.10;99.90
50606;DHT22;36557;53.572;10.170;2023-10-08T06:21:36;9.10;99.90
50606;DHT22;36557;53.572;10.170;2023-10-08T06:24:03;9.00;99.90
50606;DHT22;36557;53.572;10.170;2023-10-08T06:26:39;9.10;99.90
50606;DHT22;36557;53.572;10.170;2023-10-08T06:29:10;9.10;99.90
50606;DHT22;36557;53.572;10.170;2023-10-08T06:31:44;9.20;99.90
50606;DHT22;36557;53.572;10.170;2023-10-08T06:34:16;9.20;99.90
50606;DHT22;36557;53.572;10.170;2023-10-08T06:36:41;9.20;99.90
50606;DHT22;36557;53.572;10.170;2023-10-08T06:39:07;9.20;99.90
50606;DHT22;36557;53.572;10.170;2023-10-08T06:41:37;9.30;99.90
50606;DHT22;36557;53.572;10.170;2023-10-08T06:44:03;9.20;99.90
50606;DHT22;36557;53.572;10.170;2023-10-08T06:46:30;9.30;99.90
50606;DHT22;36557;53.572;10.170;2023-10-08T06:48:58;9.40;99.90
50606;DHT22;36557;53.572;10.170;2023-10-08T06:51:24;9.40;99.90
50606;DHT22;36557;53.572;10.170;2023-10-08T06:53:51;9.50;99.90
50606;DHT22;36557;53.572;10.170;2023-10-08T06:56:17;9.50;99.90
50606;DHT22;36557;53.572;10.170;2023-10-08T06:58:45;9.60;99.90
50606;DHT22;36557;53.572;10.170;2023-10-08T07:01:16;9.70;99.90
50606;DHT22;36557;53.572;10.170;2023-10-08T07:03:46;9.80;99.90
50606;DHT22;36557;53.572;10.170;2023-10-08T07:06:14;9.80;99.90
50606;DHT22;36557;53.572;10.170;2023-10-08T07:08:51;9.90;99.90
50606;DHT22;36557;53.572;10.170;2023-10-08T07:11:20;10.00;99.90
50606;DHT22;36557;53.572;10.170;2023-10-08T07:13:46;10.00;99.90
50606;DHT22;36557;53.572;10.170;2023-10-08T07:16:12;10.00;99.90
50606;DHT22;36557;53.572;10.170;2023-10-08T07:18:38;10.10;99.90
50606;DHT22;36557;53.572;10.170;2023-10-08T07:21:03;10.20;99.90
50606;DHT22;36557;53.572;10.170;2023-10-08T07:23:39;10.30;99.90
50606;DHT22;36557;53.572;10.170;2023-10-08T07:26:25;10.40;99.90
50606;DHT22;36557;53.572;10.170;2023-10-08T07:28:51;10.30;99.90
50606;DHT22;36557;53.572;10.170;2023-10-08T07:31:19;10.50;99.90
50606;DHT22;36557;53.572;10.170;2023-10-08T07:33:51;10.60;99.90
50606;DHT22;36557;53.572;10.170;2023-10-08T07:36:46;10.60;99.90
50606;DHT22;36557;53.572;10.170;2023-10-08T07:39:16;10.70;99.90
50606;DHT22;36557;53.572;10.170;2023-10-08T07:41:51;10.80;99.90
50606;DHT22;36557;53.572;10.170;2023-10-08T07:44:19;10.90;99.90
50606;DHT22;36557;53.572;10.170;2023-10-08T07:46:52;10.90;99.90
50606;DHT22;36557;53.572;10.170;2023-10-08T07:49:25;10.90;99.90
50606;DHT22;36557;53.572;10.170;2023-10-08T07:51:55;11.00;99.90
50606;DHT22;36557;53.572;10.170;2023-10-08T07:54:22;11.10;99.90
50606;DHT22;36557;53.572;10.170;2023-10-08T07:56:56;11.10;99.90
50606;DHT22;36557;53.572;10.170;2023-10-08T07:59:36;11.10;99.90
50606;DHT22;36557;53.572;10.170;2023-10-08T08:02:12;11.20;99.90
50606;DHT22;36557;53.572;10.170;2023-10-08T08:04:41;11.30;99.90
50606;DHT22;36557;53.572;10.170;2023-10-08T08:07:16;11.30;99.90
50606;DHT22;36557;53.572;10.170;2023-10-08T08:09:42;11.40;99.90
50606;DHT22;36557;53.572;10.170;2023-10-08T08:12:13;11.40;99.90
50606;DHT22;36557;53.572;10.170;2023-10-08T08:14:39;11.40;99.90
50606;DHT22;36557;53.572;10.170;2023-10-08T08:17:09;11.50;99.90
50606;DHT22;36557;53.572;10.170;2023-10-08T08:19:45;11.50;99.90
50606;DHT22;36557;53.572;10.170;2023-10-08T08:22:15;11.60;99.90
50606;DHT22;36557;53.572;10.170;2023-10-08T08:24:53;11.60;99.90
50606;DHT22;36557;53.572;10.170;2023-10-08T08:27:21;11.80;99.90
50606;DHT22;36557;53.572;10.170;2023-10-08T08:29:50;11.70;99.90
50606;DHT22;36557;53.572;10.170;2023-10-08T08:32:18;11.80;99.90
50606;DHT22;36557;53.572;10.170;2023-10-08T08:34:47;11.90;99.90
50606;DHT22;36557;53.572;10.170;2023-10-08T08:37:18;11.90;99.90
50606;DHT22;36557;53.572;10.170;2023-10-08T08:39:44;12.00;99.90
50606;DHT22;36557;53.572;10.170;2023-10-08T08:42:11;12.10;99.90
50606;DHT22;36557;53.572;10.170;2023-10-08T08:44:37;12.10;99.90
50606;DHT22;36557;53.572;10.170;2023-10-08T08:47:11;12.20;99.90
50606;DHT22;36557;53.572;10.170;2023-10-08T08:49:39;12.20;99.90
50606;DHT22;36557;53.572;10.170;2023-10-08T08:52:05;12.20;99.90
50606;DHT22;36557;53.572;10.170;2023-10-08T08:54:31;12.40;99.90
50606;DHT22;36557;53.572;10.170;2023-10-08T08:56:58;12.40;99.90
50606;DHT22;36557;53.572;10.170;2023-10-08T08:59:25;12.50;99.90
50606;DHT22;36557;53.572;10.170;2023-10-08T09:01:51;12.60;99.90
50606;DHT22;36557;53.572;10.170;2023-10-08T09:04:23;12.60;99.90
50606;DHT22;36557;53.572;10.170;2023-10-08T09:06:53;12.60;99.90
50606;DHT22;36557;53.572;10.170;2023-10-08T09:09:19;12.80;99.90
50606;DHT22;36557;53.572;10.170;2023-10-08T09:11:51;12.80;99.90
50606;DHT22;36557;53.572;10.170;2023-10-08T09:14:23;12.90;99.90
50606;DHT22;36557;53.572;10.170;2023-10-08T09:16:50;12.90;99.90
50606;DHT22;36557;53.572;10.170;2023-10-08T09:19:16;12.90;99.90
50606;DHT22;36557;53.572;10.170;2023-10-08T09:22:00;12.80;99.90
50606;DHT22;36557;53.572;10.170;2023-10-08T09:24:28;13.00;99.90
50606;DHT22;36557;53.572;10.170;2023-10-08T09:26:54;13.10;99.90
50606;DHT22;36557;53.572;10.170;2023-10-08T09:29:23;13.10;99.90
50606;DHT22;36557;53.572;10.170;2023-10-08T09:31:59;13.20;99.90
50606;DHT22;36557;53.572;10.170;2023-10-08T09:34:29;13.40;99.90
50606;DHT22;36557;53.572;10.170;2023-10-08T09:36:55;13.50;99.90
50606;DHT22;36557;53.572;10.170;2023-10-08T09:39:21;13.40;99.90
50606;DHT22;36557;53.572;10.170;2023-10-08T09:41:52;13.40;99.90
50606;DHT22;36557;53.572;10.170;2023-10-08T09:44:19;13.60;99.90
50606;DHT22;36557;53.572;10.170;2023-10-08T09:46:46;13.60;99.90
50606;DHT22;36557;53.572;10.170;2023-10-08T09:49:13;13.70;99.90
50606;DHT22;36557;53.572;10.170;2023-10-08T09:51:43;13.80;99.90
50606;DHT22;36557;53.572;10.170;2023-10-08T09:54:11;13.60;99.90
50606;DHT22;36557;53.572;10.170;2023-10-08T09:56:40;13.50;99.90
50606;DHT22;36557;53.572;10.170;2023-10-08T09:59:06;13.50;99.90
50606;DHT22;36557;53.572;10.170;2023-10-08T10:01:35;13.70;99.90
50606;DHT22;36557;53.572;10.170;2023-10-08T10:04:08;13.80;99.90
50606;DHT22;36557;53.572;10.170;2023-10-08T10:06:34;14.00;99.90
50606;DHT22;36557;53.572;10.170;2023-10-08T10:09:01;14.10;99.90
50606;DHT22;36557;53.572;10.170;2023-10-08T10:11:28;14.10;99.90
50606;DHT22;36557;53.572;10.170;2023-10-08T10:13:58;14.30;99.90
50606;DHT22;36557;53.572;10.170;2023-10-08T10:16:25;14.40;99.90
50606;DHT22;36557;53.572;10.170;2023-10-08T10:18:55;14.00;99.90
50606;DHT22;36557;53.572;10.170;2023-10-08T10:21:26;13.90;99.90
50606;DHT22;36557;53.572;10.170;2023-10-08T10:23:52;13.60;99.90
50606;DHT22;36557;53.572;10.170;2023-10-08T10:31:50;13.80;99.90
50606;DHT22;36557;53.572;10.170;2023-10-08T10:34:20;14.10;99.90
50606;DHT22;36557;53.572;10.170;2023-10-08T10:36:46;14.50;99.90
50606;DHT22;36557;53.572;10.170;2023-10-08T10:39:19;14.80;99.90
50606;DHT22;36557;53.572;10.170;2023-10-08T10:41:58;14.80;99.90
50606;DHT22;36557;53.572;10.170;2023-10-08T10:44:27;14.80;99.90
50606;DHT22;36557;53.572;10.170;2023-10-08T10:46:55;14.90;99.90
50606;DHT22;36557;53.572;10.170;2023-10-08T10:49:39;15.10;99.90
50606;DHT22;36557;53.572;10.170;2023-10-08T10:52:16;15.10;99.90
50606;DHT22;36557;53.572;10.170;2023-10-08T10:55:01;15.50;99.90
50606;DHT22;36557;53.572;10.170;2023-10-08T10:57:44;15.60;99.90
50606;DHT22;36557;53.572;10.170;2023-10-08T11:00:11;15.40;99.90
50606;DHT22;36557;53.572;10.170;2023-10-08T11:02:58;15.10;99.90
50606;DHT22;36557;53.572;10.170;2023-10-08T11:05:41;15.10;99.90
50606;DHT22;36557;53.572;10.170;2023-10-08T11:08:13;15.40;99.90
50606;DHT22;36557;53.572;10.170;2023-10-08T11:10:41;15.70;99.90
50606;DHT22;36557;53.572;10.170;2023-10-08T11:13:12;15.90;99.90
50606;DHT22;36557;53.572;10.170;2023-10-08T11:15:41;15.90;99.90
50606;DHT22;36557;53.572;10.170;2023-10-08T11:18:10;15.90;99.90
50606;DHT22;36557;53.572;10.170;2023-10-08T11:20:36;15.80;99.90
50606;DHT22;36557;53.572;10.170;2023-10-08T11:23:07;15.70;99.90
50606;DHT22;36557;53.572;10.170;2023-10-08T11:25:54;15.50;99.90
50606;DHT22;36557;53.572;10.170;2023-10-08T11:28:20;15.60;99.90
50606;DHT22;36557;53.572;10.170;2023-10-08T11:30:47;15.40;99.90
50606;DHT22;36557;53.572;10.170;2023-10-08T11:33:16;15.30;99.90
50606;DHT22;36557;53.572;10.170;2023-10-08T11:38:25;15.60;99.90
50606;DHT22;36557;53.572;10.170;2023-10-08T11:40:53;15.60;99.90
50606;DHT22;36557;53.572;10.170;2023-10-08T11:43:24;15.60;99.90
50606;DHT22;36557;53.572;10.170;2023-10-08T11:45:51;15.70;99.90
50606;DHT22;36557;53.572;10.170;2023-10-08T11:48:16;15.60;99.90
50606;DHT22;36557;53.572;10.170;2023-10-08T11:50:47;15.60;99.90
50606;DHT22;36557;53.572;10.170;2023-10-08T11:53:15;16.20;99.90
50606;DHT22;36557;53.572;10.170;2023-10-08T11:55:41;16.10;99.90
50606;DHT22;36557;53.572;10.170;2023-10-08T11:58:08;16.00;99.90
50606;DHT22;36557;53.572;10.170;2023-10-08T12:00:40;15.80;99.90
50606;DHT22;36557;53.572;10.170;2023-10-08T12:03:17;15.90;99.90
50606;DHT22;36557;53.572;10.170;2023-10-08T12:05:47;15.90;99.90
50606;DHT22;36557;53.572;10.170;2023-10-08T12:08:13;15.80;99.90
50606;DHT22;36557;53.572;10.170;2023-10-08T12:10:42;15.90;99.50
50606;DHT22;36557;53.572;10.170;2023-10-08T12:13:08;16.60;99.90
50606;DHT22;36557;53.572;10.170;2023-10-08T12:15:35;16.60;99.90
50606;DHT22;36557;53.572;10.170;2023-10-08T12:18:04;16.30;99.90
50606;DHT22;36557;53.572;10.170;2023-10-08T12:20:48;15.60;98.30
50606;DHT22;36557;53.572;10.170;2023-10-08T12:23:14;15.60;99.90
50606;DHT22;36557;53.572;10.170;2023-10-08T12:26:06;15.80;99.90
50606;DHT22;36557;53.572;10.170;2023-10-08T12:28:33;15.60;99.90
50606;DHT22;36557;53.572;10.170;2023-10-08T12:30:59;15.50;99.90
50606;DHT22;36557;53.572;10.170;2023-10-08T12:33:26;15.60;99.90
50606;DHT22;36557;53.572;10.170;2023-10-08T12:35:51;15.50;99.40
50606;DHT22;36557;53.572;10.170;2023-10-08T12:38:21;15.90;99.90
50606;DHT22;36557;53.572;10.170;2023-10-08T12:40:50;16.00;99.90
50606;DHT22;36557;53.572;10.170;2023-10-08T12:43:23;16.20;99.90
50606;DHT22;36557;53.572;10.170;2023-10-08T12:45:52;16.50;99.90
50606;DHT22;36557;53.572;10.170;2023-10-08T12:48:21;16.10;96.80
50606;DHT22;36557;53.572;10.170;2023-10-08T12:50:48;16.00;97.30
50606;DHT22;36557;53.572;10.170;2023-10-08T12:53:22;15.90;99.80
50606;DHT22;36557;53.572;10.170;2023-10-08T12:56:06;16.00;99.90
50606;DHT22;36557;53.572;10.170;2023-10-08T12:58:35;15.90;99.90
50606;DHT22;36557;53.572;10.170;2023-10-08T13:01:09;15.90;99.90
50606;DHT22;36557;53.572;10.170;2023-10-08T13:03:35;15.50;97.80
50606;DHT22;36557;53.572;10.170;2023-10-08T13:06:09;15.60;98.00
50606;DHT22;36557;53.572;10.170;2023-10-08T13:08:47;15.70;99.70
50606;DHT22;36557;53.572;10.170;2023-10-08T13:11:13;15.60;99.20
50606;DHT22;36557;53.572;10.170;2023-10-08T13:13:38;15.70;99.30
50606;DHT22;36557;53.572;10.170;2023-10-08T13:16:04;15.90;99.90
50606;DHT22;36557;53.572;10.170;2023-10-08T13:18:35;15.60;97.10
50606;DHT22;36557;53.572;10.170;2023-10-08T13:21:03;15.30;96.60
50606;DHT22;36557;53.572;10.170;2023-10-08T13:23:29;15.40;97.60
50606;DHT22;36557;53.572;10.170;2023-10-08T13:25:54;15.70;99.90
50606;DHT22;36557;53.572;10.170;2023-10-08T13:28:21;15.50;98.60
50606;DHT22;36557;53.572;10.170;2023-10-08T13:30:48;15.40;98.80
50606;DHT22;36557;53.572;10.170;2023-10-08T13:33:21;15.60;99.90
50606;DHT22;36557;53.572;10.170;2023-10-08T13:35:50;15.80;99.90
50606;DHT22;36557;53.572;10.170;2023-10-08T13:38:19;15.90;99.90
50606;DHT22;36557;53.572;10.170;2023-10-08T13:40:48;15.80;99.70
50606;DHT22;36557;53.572;10.170;2023-10-08T13:43:40;15.90;99.90
50606;DHT22;36557;53.572;10.170;2023-10-08T13:46:06;15.80;99.90
50606;DHT22;36557;53.572;10.170;2023-10-08T13:48:35;15.70;98.60
50606;DHT22;36557;53.572;10.170;2023-10-08T13:51:04;15.40;98.50
50606;DHT22;36557;53.572;10.170;2023-10-08T13:53:33;15.30;98.30
50606;DHT22;36557;53.572;10.170;2023-10-08T13:55:59;15.30;98.50
50606;DHT22;36557;53.572;10.170;2023-10-08T13:58:30;15.30;99.10
50606;DHT22;36557;53.572;10.170;2023-10-08T14:00:58;15.30;97.70
50606;DHT22;36557;53.572;10.170;2023-10-08T14:03:27;15.40;99.90
50606;DHT22;36557;53.572;10.170;2023-10-08T14:05:58;15.30;99.20
50606;DHT22;36557;53.572;10.170;2023-10-08T14:08:29;15.20;98.10
50606;DHT22;36557;53.572;10.170;2023-10-08T14:10:54;15.10;98.40
50606;DHT22;36557;53.572;10.170;2023-10-08T14:13:25;15.20;99.90
50606;DHT22;36557;53.572;10.170;2023-10-08T14:15:52;15.20;99.90
50606;DHT22;36557;53.572;10.170;2023-10-08T14:18:24;15.30;99.90
50606;DHT22;36557;53.572;10.170;2023-10-08T14:20:54;15.50;99.90
50606;DHT22;36557;53.572;10.170;2023-10-08T14:23:23;15.50;99.90
50606;DHT22;36557;53.572;10.170;2023-10-08T14:25:51;15.30;99.90
50606;DHT22;36557;53.572;10.170;2023-10-08T14:28:17;15.70;99.90
50606;DHT22;36557;53.572;10.170;2023-10-08T14:31:05;15.70;99.90
50606;DHT22;36557;53.572;10.170;2023-10-08T14:33:31;15.30;99.90
50606;DHT22;36557;53.572;10.170;2023-10-08T14:36:07;15.10;99.90
50606;DHT22;36557;53.572;10.170;2023-10-08T14:38:51;14.90;99.90
50606;DHT22;36557;53.572;10.170;2023-10-08T14:41:35;14.70;99.90
50606;DHT22;36557;53.572;10.170;2023-10-08T14:44:19;14.90;99.90
50606;DHT22;36557;53.572;10.170;2023-10-08T14:46:45;14.80;99.90
50606;DHT22;36557;53.572;10.170;2023-10-08T14:49:10;14.80;99.90
50606;DHT22;36557;53.572;10.170;2023-10-08T14:51:37;14.70;99.90
50606;DHT22;36557;53.572;10.170;2023-10-08T14:54:05;14.70;99.90
50606;DHT22;36557;53.572;10.170;2023-10-08T14:56:33;14.70;99.90
50606;DHT22;36557;53.572;10.170;2023-10-08T14:58:59;14.70;99.90
50606;DHT22;36557;53.572;10.170;2023-10-08T15:01:26;14.60;99.90
50606;DHT22;36557;53.572;10.170;2023-10-08T15:03:52;14.50;99.90
50606;DHT22;36557;53.572;10.170;2023-10-08T15:06:17;14.60;99.90
50606;DHT22;36557;53.572;10.170;2023-10-08T15:08:44;14.70;99.90
50606;DHT22;36557;53.572;10.170;2023-10-08T15:11:10;14.70;99.90
50606;DHT22;36557;53.572;10.170;2023-10-08T15:13:36;14.60;99.90
50606;DHT22;36557;53.572;10.170;2023-10-08T15:16:07;14.60;99.90
50606;DHT22;36557;53.572;10.170;2023-10-08T15:18:32;14.60;99.90
50606;DHT22;36557;53.572;10.170;2023-10-08T15:21:08;14.60;99.90
50606;DHT22;36557;53.572;10.170;2023-10-08T15:23:33;14.70;99.90
50606;DHT22;36557;53.572;10.170;2023-10-08T15:25:59;14.50;99.90
50606;DHT22;36557;53.572;10.170;2023-10-08T15:28:25;14.30;99.90
50606;DHT22;36557;53.572;10.170;2023-10-08T15:30:51;14.40;99.90
50606;DHT22;36557;53.572;10.170;2023-10-08T15:33:17;14.40;99.90
50606;DHT22;36557;53.572;10.170;2023-10-08T15:35:43;14.40;99.90
50606;DHT22;36557;53.572;10.170;2023-10-08T15:38:08;14.20;99.90
50606;DHT22;36557;53.572;10.170;2023-10-08T15:40:34;14.20;99.90
50606;DHT22;36557;53.572;10.170;2023-10-08T15:42:59;14.10;99.90
50606;DHT22;36557;53.572;10.170;2023-10-08T15:45:25;14.10;99.90
50606;DHT22;36557;53.572;10.170;2023-10-08T15:47:51;14.10;99.90
50606;DHT22;36557;53.572;10.170;2023-10-08T15:50:17;14.00;99.90
50606;DHT22;36557;53.572;10.170;2023-10-08T15:52:46;14.10;99.90